createdAt,value
2022-07-26T04:02:13.925Z,0.93
2022-07-26T04:04:41.531Z,1.33
2022-07-26T04:07:09.992Z,1.13
2022-07-26T04:09:40.283Z,1.00
2022-07-26T04:12:08.143Z,1.50
2022-07-26T04:14:36.330Z,1.20
2022-07-26T04:17:04.018Z,2.22
2022-07-26T04:19:33.007Z,1.52
2022-07-26T04:22:07.411Z,1.23
2022-07-26T04:24:34.989Z,1.20
2022-07-26T04:27:02.563Z,1.65
2022-07-26T04:29:30.154Z,1.27
2022-07-26T04:31:57.718Z,1.95
2022-07-26T04:34:25.293Z,1.70
2022-07-26T04:36:56.579Z,1.17
2022-07-26T04:39:25.153Z,1.92
2022-07-26T04:41:52.746Z,1.80
2022-07-26T04:44:20.324Z,1.75
2022-07-26T04:46:47.926Z,1.77
2022-07-26T04:49:15.624Z,2.70
2022-07-26T04:51:43.277Z,1.80
2022-07-26T04:54:12.159Z,1.65
2022-07-26T04:56:39.808Z,1.77
2022-07-26T04:59:07.681Z,2.20
2022-07-26T05:01:35.436Z,2.83
2022-07-26T05:04:03.069Z,2.08
2022-07-26T05:06:32.127Z,1.90
2022-07-26T05:08:59.973Z,2.00
2022-07-26T05:11:28.966Z,2.05
2022-07-26T05:13:56.597Z,3.53
2022-07-26T05:16:24.227Z,2.58
2022-07-26T05:18:51.913Z,2.42
2022-07-26T05:21:19.822Z,2.83
2022-07-26T05:23:47.686Z,2.40
2022-07-26T05:26:15.575Z,2.00
2022-07-26T05:28:44.471Z,2.65
2022-07-26T05:31:12.190Z,1.60
2022-07-26T05:33:39.836Z,3.65
2022-07-26T05:36:07.803Z,2.05
2022-07-26T05:38:35.381Z,2.30
2022-07-26T05:41:02.986Z,2.05
2022-07-26T05:43:40.702Z,2.10
2022-07-26T05:46:11.748Z,2.40
2022-07-26T05:48:39.967Z,1.70
2022-07-26T05:51:09.935Z,1.92
2022-07-26T05:53:38.446Z,1.95
2022-07-26T05:56:07.085Z,2.38
2022-07-26T05:58:34.745Z,2.05
2022-07-26T06:01:02.339Z,1.85
2022-07-26T06:03:32.273Z,2.10
2022-07-26T06:06:00.122Z,2.40
2022-07-26T06:08:28.045Z,2.67
2022-07-26T06:10:55.775Z,2.03
2022-07-26T06:13:23.716Z,1.90
2022-07-26T06:15:51.775Z,2.92
2022-07-26T06:18:19.462Z,2.80
2022-07-26T06:20:49.141Z,2.13
2022-07-26T06:23:16.789Z,1.85
2022-07-26T06:25:44.495Z,2.30
2022-07-26T06:28:12.147Z,2.22
2022-07-26T06:30:40.331Z,2.20
2022-07-26T06:33:09.461Z,2.63
2022-07-26T06:35:39.067Z,2.40
2022-07-26T06:38:09.896Z,2.00
2022-07-26T06:40:37.660Z,2.88
2022-07-26T06:43:05.257Z,2.72
2022-07-26T06:45:34.005Z,2.83
2022-07-26T06:48:02.359Z,2.78
2022-07-26T06:50:29.934Z,3.63
2022-07-26T06:52:57.518Z,2.63
2022-07-26T06:55:28.697Z,2.40
2022-07-26T06:57:56.290Z,3.10
2022-07-26T07:00:23.936Z,2.53
2022-07-26T07:02:51.645Z,3.25
2022-07-26T07:05:19.632Z,2.88
2022-07-26T07:07:47.318Z,3.08
2022-07-26T07:10:15.837Z,2.90
2022-07-26T07:12:44.966Z,3.08
2022-07-26T07:15:12.918Z,2.95
2022-07-26T07:17:40.565Z,3.40
2022-07-26T07:20:08.785Z,3.33
2022-07-26T07:22:36.410Z,3.40
2022-07-26T07:25:06.074Z,3.00
2022-07-26T07:27:34.179Z,2.88
2022-07-26T07:30:04.041Z,2.67
2022-07-26T07:32:31.922Z,2.88
2022-07-26T07:34:59.662Z,2.50
2022-07-26T07:37:27.378Z,3.03
2022-07-26T07:40:15.877Z,2.95
2022-07-26T07:42:44.187Z,3.03
2022-07-26T07:45:13.285Z,2.90
2022-07-26T07:47:40.921Z,2.67
2022-07-26T07:50:09.478Z,2.83
2022-07-26T07:52:37.227Z,2.92
2022-07-26T07:55:40.539Z,3.45
2022-07-26T07:57:52.929Z,3.03
2022-07-26T08:00:27.059Z,2.63
2022-07-26T08:02:55.216Z,3.50
2022-07-26T08:05:22.992Z,2.90
2022-07-26T08:07:50.681Z,3.13
2022-07-26T08:10:20.660Z,2.92
2022-07-26T08:12:51.256Z,2.75
2022-07-26T08:15:19.748Z,3.05
2022-07-26T08:17:54.008Z,3.67
2022-07-26T08:20:25.124Z,2.65
2022-07-26T08:22:52.996Z,2.78
2022-07-26T08:25:20.949Z,2.80
2022-07-26T08:28:03.254Z,3.03
2022-07-26T08:30:31.570Z,2.50
2022-07-26T08:33:00.574Z,3.00
2022-07-26T08:35:30.186Z,1.65
2022-07-26T08:37:58.105Z,1.95
2022-07-26T08:40:26.186Z,1.70
2022-07-26T08:42:55.290Z,1.67
2022-07-26T08:45:23.957Z,1.42
2022-07-26T08:48:16.197Z,1.45
2022-07-26T08:50:42.699Z,1.77
2022-07-26T08:53:12.808Z,1.50
2022-07-26T08:56:05.270Z,1.50
2022-07-26T08:58:28.231Z,1.30
2022-07-26T09:01:08.465Z,1.42
2022-07-26T09:03:37.754Z,1.02
2022-07-26T09:06:15.005Z,1.80
2022-07-26T09:08:43.671Z,1.10
2022-07-26T09:11:32.634Z,0.95
2022-07-26T09:14:02.306Z,1.20
2022-07-26T09:16:30.426Z,0.95
2022-07-26T09:19:19.087Z,0.88
2022-07-26T09:21:48.156Z,1.23
2022-07-26T09:24:31.263Z,1.25
2022-07-26T09:26:59.388Z,0.98
2022-07-26T09:29:28.338Z,1.20
2022-07-26T09:32:11.127Z,1.27
2022-07-26T09:34:51.887Z,1.00
2022-07-26T09:37:34.131Z,1.30
2022-07-26T09:40:04.810Z,1.25
2022-07-26T09:42:34.227Z,1.13
2022-07-26T09:45:02.379Z,0.88
2022-07-26T09:47:37.583Z,1.27
2022-07-26T09:50:13.367Z,1.67
2022-07-26T09:52:58.900Z,1.60
2022-07-26T09:55:32.077Z,1.20
2022-07-26T09:58:06.330Z,0.95
2022-07-26T10:00:34.718Z,1.45
2022-07-26T10:03:02.765Z,1.50
2022-07-26T10:05:30.629Z,1.35
2022-07-26T10:08:00.352Z,1.08
2022-07-26T10:10:32.741Z,1.60
2022-07-26T10:13:02.795Z,2.05
2022-07-26T10:15:36.118Z,1.73
2022-07-26T10:18:05.110Z,1.90
2022-07-26T10:20:45.381Z,1.80
2022-07-26T10:23:31.445Z,1.60
2022-07-26T10:26:01.492Z,1.40
2022-07-26T10:28:31.175Z,1.58
2022-07-26T10:31:29.400Z,1.60
2022-07-26T10:33:58.672Z,1.30
2022-07-26T10:36:34.768Z,1.02
2022-07-26T10:39:06.350Z,1.20
2022-07-26T10:41:38.567Z,1.10
2022-07-26T10:44:17.693Z,1.05
2022-07-26T10:47:15.605Z,1.08
2022-07-26T10:49:53.095Z,0.77
2022-07-26T10:52:22.382Z,1.17
2022-07-26T10:55:07.491Z,1.00
2022-07-26T10:57:38.206Z,1.10
2022-07-26T11:00:11.628Z,0.88
2022-07-26T11:02:39.733Z,0.68
2022-07-26T11:05:13.666Z,0.98
2022-07-26T11:08:01.298Z,0.90
2022-07-26T11:10:32.402Z,0.88
2022-07-26T11:13:11.235Z,1.00
2022-07-26T11:15:41.203Z,0.60
2022-07-26T11:18:22.149Z,0.55
2022-07-26T11:20:52.285Z,0.80
2022-07-26T11:23:28.698Z,0.73
2022-07-26T11:26:04.467Z,0.65
2022-07-26T11:28:51.281Z,0.70
2022-07-26T11:31:20.688Z,0.50
2022-07-26T11:33:51.674Z,0.60
2022-07-26T11:36:21.226Z,0.60
2022-07-26T11:38:52.159Z,0.40
2022-07-26T11:41:20.739Z,0.60
2022-07-26T11:44:05.169Z,1.00
2022-07-26T11:46:36.577Z,0.73
2022-07-26T11:49:07.033Z,0.38
2022-07-26T11:51:34.859Z,0.75
2022-07-26T11:54:04.663Z,0.93
2022-07-26T11:56:32.799Z,0.98
2022-07-26T11:59:00.973Z,1.02
2022-07-26T12:01:30.339Z,0.85
2022-07-26T12:03:58.473Z,0.90
2022-07-26T12:06:28.880Z,1.20
2022-07-26T12:08:58.914Z,1.00
2022-07-26T12:11:39.717Z,0.80
2022-07-26T12:14:07.495Z,1.30
2022-07-26T12:16:45.348Z,1.40
2022-07-26T12:19:26.103Z,1.23
2022-07-26T12:21:56.280Z,1.30
2022-07-26T12:24:39.491Z,1.20
2022-07-26T12:27:12.805Z,1.00
2022-07-26T12:29:41.753Z,0.98
2022-07-26T12:32:13.898Z,1.30
2022-07-26T12:34:43.881Z,1.10
2022-07-26T12:37:14.452Z,1.17
2022-07-26T12:39:43.820Z,1.30
2022-07-26T12:42:33.458Z,1.33
2022-07-26T12:45:04.206Z,1.50
2022-07-26T12:47:33.073Z,1.00
2022-07-26T12:50:01.317Z,0.90
2022-07-26T12:52:30.220Z,1.05
2022-07-26T12:54:57.920Z,1.15
2022-07-26T12:57:26.121Z,0.93
2022-07-26T12:59:55.157Z,0.80
2022-07-26T13:02:23.659Z,1.02
2022-07-26T13:04:58.272Z,1.13
2022-07-26T13:07:27.761Z,1.20
2022-07-26T13:10:22.540Z,1.00
2022-07-26T13:12:43.334Z,0.90
2022-07-26T13:15:11.477Z,1.30
2022-07-26T13:17:40.692Z,0.68
2022-07-26T13:20:10.339Z,1.00
2022-07-26T13:22:37.963Z,0.70
2022-07-26T13:25:08.778Z,0.70
2022-07-26T13:27:39.082Z,1.55
2022-07-26T13:30:09.910Z,0.52
2022-07-26T13:32:37.558Z,0.70
2022-07-26T13:35:05.560Z,0.93
2022-07-26T13:37:34.517Z,1.20
2022-07-26T13:40:02.291Z,2.20
2022-07-26T13:42:30.185Z,2.70
2022-07-26T13:44:57.873Z,0.63
2022-07-26T13:47:25.467Z,0.80
2022-07-26T13:49:53.048Z,0.60
2022-07-26T13:52:20.729Z,0.75
2022-07-26T13:54:49.619Z,1.50
2022-07-26T13:57:17.213Z,0.60
2022-07-26T13:59:44.870Z,1.27
2022-07-26T14:02:12.613Z,0.80
2022-07-26T14:04:40.294Z,0.73
2022-07-26T14:07:08.154Z,1.25
2022-07-26T14:09:35.873Z,0.70
2022-07-26T14:12:05.393Z,0.77
2022-07-26T14:14:36.124Z,0.57
2022-07-26T14:17:03.841Z,1.20
2022-07-26T14:19:31.561Z,1.80
2022-07-26T14:22:00.417Z,0.65
2022-07-26T14:24:29.025Z,1.10
2022-07-26T14:26:59.644Z,1.20
2022-07-26T14:29:28.992Z,1.02
2022-07-26T14:31:56.716Z,1.10
2022-07-26T14:34:24.410Z,1.10
2022-07-26T14:36:52.098Z,0.85
2022-07-26T14:39:19.702Z,1.08
2022-07-26T14:41:48.062Z,0.98
2022-07-26T14:44:15.694Z,0.80
2022-07-26T14:46:46.268Z,0.82
2022-07-26T14:49:14.259Z,0.65
2022-07-26T14:51:41.974Z,0.82
2022-07-26T14:54:10.151Z,0.70
2022-07-26T14:56:37.952Z,0.70
2022-07-26T14:59:05.632Z,0.70
2022-07-26T15:01:33.620Z,0.50
2022-07-26T15:04:02.882Z,0.70
2022-07-26T15:06:30.646Z,0.60
2022-07-26T15:08:58.268Z,0.63
2022-07-26T15:11:25.979Z,1.13
2022-07-26T15:13:54.723Z,1.35
2022-07-26T15:16:22.448Z,0.90
2022-07-26T15:18:50.138Z,0.90
2022-07-26T15:21:19.269Z,0.85
2022-07-26T15:23:46.937Z,0.50
2022-07-26T15:26:14.528Z,1.80
2022-07-26T15:28:42.165Z,1.13
2022-07-26T15:31:11.375Z,1.42
2022-07-26T15:33:39.127Z,1.17
2022-07-26T15:36:06.908Z,0.95
2022-07-26T15:38:35.862Z,0.90
2022-07-26T15:41:03.809Z,0.95
2022-07-26T15:43:48.275Z,0.70
2022-07-26T15:46:17.084Z,1.10
2022-07-26T15:48:45.730Z,0.80
2022-07-26T15:51:16.835Z,1.20
2022-07-26T15:53:46.656Z,1.00
2022-07-26T15:56:14.842Z,0.88
2022-07-26T15:58:42.449Z,0.93
2022-07-26T16:01:13.901Z,1.23
2022-07-26T16:03:41.922Z,0.85
2022-07-26T16:06:09.520Z,0.93
2022-07-26T16:08:52.694Z,0.90
2022-07-26T16:11:26.263Z,1.40
2022-07-26T16:14:01.460Z,1.20
2022-07-26T16:16:30.341Z,1.15
2022-07-26T16:18:58.597Z,0.80
2022-07-26T16:21:26.261Z,1.02
2022-07-26T16:23:53.834Z,1.00
2022-07-26T16:26:21.456Z,1.08
2022-07-26T16:28:50.440Z,1.45
2022-07-26T16:31:18.242Z,0.98
2022-07-26T16:33:46.688Z,0.90
2022-07-26T16:36:14.889Z,1.05
2022-07-26T16:38:42.509Z,1.50
2022-07-26T16:41:10.163Z,1.42
2022-07-26T16:43:37.817Z,1.20
2022-07-26T16:46:06.804Z,1.10
2022-07-26T16:48:34.709Z,1.23
2022-07-26T16:51:02.632Z,0.82
2022-07-26T16:53:30.333Z,1.10
2022-07-26T16:55:57.957Z,0.93
2022-07-26T16:58:25.601Z,1.10
2022-07-26T17:00:53.309Z,1.30
2022-07-26T17:03:23.545Z,1.08
2022-07-26T17:05:51.701Z,1.17
2022-07-26T17:08:21.276Z,1.10
2022-07-26T17:10:48.847Z,1.23
2022-07-26T17:13:16.468Z,1.00
2022-07-26T17:15:44.205Z,1.67
2022-07-26T17:18:11.896Z,0.90
2022-07-26T17:20:40.991Z,1.17
2022-07-26T17:23:08.980Z,1.90
2022-07-26T17:25:36.620Z,1.13
2022-07-26T17:28:04.261Z,0.65
2022-07-26T17:30:31.896Z,1.48
2022-07-26T17:32:59.600Z,1.10
2022-07-26T17:35:27.227Z,1.00
2022-07-26T17:37:56.436Z,0.85
2022-07-26T17:40:25.715Z,0.90
2022-07-26T17:42:53.654Z,1.27
2022-07-26T17:45:21.491Z,2.55
2022-07-26T17:47:49.597Z,1.23
2022-07-26T17:53:06.208Z,0.82
2022-07-26T17:55:33.928Z,1.40
2022-07-26T17:58:01.754Z,1.20
2022-07-26T18:00:29.668Z,1.52
2022-07-26T18:02:57.983Z,1.27
2022-07-26T18:05:33.009Z,1.45
2022-07-26T18:08:02.120Z,1.30
2022-07-26T18:10:31.086Z,1.83
2022-07-26T18:12:58.694Z,1.45
2022-07-26T18:15:26.328Z,1.33
2022-07-26T18:17:53.891Z,1.10
2022-07-26T18:20:21.525Z,1.10
2022-07-26T18:22:53.557Z,1.73
2022-07-26T18:25:21.894Z,1.50
2022-07-26T18:27:50.958Z,1.10
2022-07-26T18:30:18.626Z,1.27
2022-07-26T18:32:46.326Z,1.20
2022-07-26T18:35:16.267Z,1.10
2022-07-26T18:37:43.931Z,1.05
2022-07-26T18:40:11.985Z,1.10
2022-07-26T18:42:39.846Z,0.68
2022-07-26T18:45:09.562Z,1.35
2022-07-26T18:47:37.522Z,1.67
2022-07-26T18:50:06.799Z,1.20
2022-07-26T18:52:35.571Z,0.80
2022-07-26T18:55:06.979Z,1.00
2022-07-26T18:57:35.318Z,0.95
2022-07-26T19:00:03.299Z,1.20
2022-07-26T19:02:32.280Z,1.63
2022-07-26T19:05:00.210Z,1.17
2022-07-26T19:07:28.290Z,2.47
2022-07-26T19:09:58.562Z,1.08
2022-07-26T19:12:27.316Z,1.08
2022-07-26T19:14:55.090Z,1.05
2022-07-26T19:17:23.080Z,1.50
2022-07-26T19:19:52.011Z,1.08
2022-07-26T19:22:20.723Z,2.08
2022-07-26T19:24:48.850Z,1.58
2022-07-26T19:27:16.510Z,2.15
2022-07-26T19:29:44.724Z,1.85
2022-07-26T19:32:12.386Z,1.02
2022-07-26T19:34:40.002Z,1.70
2022-07-26T19:37:09.046Z,1.40
2022-07-26T19:39:36.946Z,1.15
2022-07-26T19:42:05.006Z,1.65
2022-07-26T19:44:32.779Z,1.25
2022-07-26T19:47:00.398Z,1.08
2022-07-26T19:49:28.676Z,1.08
2022-07-26T19:51:56.473Z,1.35
2022-07-26T19:54:26.309Z,1.48
2022-07-26T19:56:53.909Z,1.58
2022-07-26T19:59:24.076Z,1.20
2022-07-26T20:01:56.599Z,0.98
2022-07-26T20:04:26.230Z,0.95
2022-07-26T20:06:54.853Z,1.90
2022-07-26T20:09:22.539Z,1.25
2022-07-26T20:11:51.748Z,1.10
2022-07-26T20:14:19.723Z,1.77
2022-07-26T20:16:48.845Z,2.05
2022-07-26T20:19:18.428Z,1.05
2022-07-26T20:21:46.120Z,1.23
2022-07-26T20:24:15.474Z,1.25
2022-07-26T20:26:43.107Z,0.90
2022-07-26T20:29:12.482Z,1.25
2022-07-26T20:31:40.339Z,1.15
2022-07-26T20:34:07.961Z,0.95
2022-07-26T20:36:35.617Z,0.90
2022-07-26T20:39:03.993Z,1.05
2022-07-26T20:41:33.976Z,1.00
2022-07-26T20:44:01.765Z,0.80
2022-07-26T20:46:30.762Z,0.90
2022-07-26T20:48:58.691Z,1.27
2022-07-26T20:51:26.382Z,1.17
2022-07-26T20:53:54.029Z,1.02
2022-07-26T20:56:21.813Z,1.17
2022-07-26T20:58:49.423Z,0.85
2022-07-26T21:01:17.060Z,1.15
2022-07-26T21:03:46.013Z,0.80
2022-07-26T21:06:13.654Z,1.40
2022-07-26T21:08:41.981Z,0.70
2022-07-26T21:11:09.593Z,0.93
2022-07-26T21:13:37.690Z,0.90
2022-07-26T21:16:05.832Z,0.88
2022-07-26T21:18:38.203Z,0.95
2022-07-26T21:21:07.579Z,0.90
2022-07-26T21:23:35.294Z,0.80
2022-07-26T21:26:02.941Z,0.98
2022-07-26T21:28:30.552Z,0.80
2022-07-26T21:30:58.164Z,0.90
2022-07-26T21:33:25.778Z,1.08
2022-07-26T21:35:53.488Z,2.85
2022-07-26T21:38:22.531Z,1.10
2022-07-26T21:40:50.130Z,0.82
2022-07-26T21:43:17.889Z,1.52
2022-07-26T21:45:45.482Z,0.88
2022-07-26T21:48:13.125Z,0.63
2022-07-26T21:50:40.780Z,1.10
2022-07-26T21:53:08.414Z,0.85
2022-07-26T21:55:37.325Z,0.80
2022-07-26T21:58:04.920Z,0.85
2022-07-26T22:00:32.549Z,1.67
2022-07-26T22:03:00.202Z,2.00
2022-07-26T22:05:37.908Z,2.53
2022-07-26T22:08:10.863Z,2.97
2022-07-26T22:10:44.074Z,3.30
2022-07-26T22:13:12.843Z,4.18
2022-07-26T22:15:40.691Z,3.90
2022-07-26T22:18:09.873Z,4.95
2022-07-26T22:20:38.184Z,4.07
2022-07-26T22:23:07.098Z,4.90
2022-07-26T22:25:35.550Z,4.50
2022-07-26T22:28:05.718Z,4.65
2022-07-26T22:30:33.736Z,4.65
2022-07-26T22:33:04.138Z,4.90
2022-07-26T22:35:36.583Z,4.90
2022-07-26T22:38:07.397Z,4.75
2022-07-26T22:40:35.263Z,3.58
2022-07-26T22:43:04.999Z,3.88
2022-07-26T22:45:33.686Z,2.83
2022-07-26T22:48:02.939Z,2.67
2022-07-26T22:50:31.314Z,2.28
2022-07-26T22:53:00.815Z,4.10
2022-07-26T22:55:28.795Z,2.70
2022-07-26T22:57:56.548Z,3.13
